| Date | Time | Temp. (oF) | Dew Point (oF) | Rel. Hum. (%) | Press. (in.) | Wind Dir. | Wind Speed (mph) | Hourly Rainfall (in.) |
|
|---|---|---|---|---|---|---|---|---|---|
| 1 | 11/16 | 00:00 | 45 | 42 | 92 | 30.05 | SSW | 1 | 0.00 |
| 2 | 11/15 | 23:00 | 45 | 43 | 94 | 30.04 | SW | 0 | 0.00 |
| 3 | 11/15 | 22:00 | 46 | 44 | 93 | 30.05 | SSW | 1 | 0.00 |
| 4 | 11/15 | 21:00 | 45 | 43 | 96 | 30.03 | N | 1 | 0.00 |
| 5 | 11/15 | 20:00 | 46 | 45 | 99 | 30.02 | WSW | 1 | 0.00 |
| 6 | 11/15 | 19:00 | 48 | 48 | 100 | 30.02 | SSW | 0 | 0.00 |
| 7 | 11/15 | 18:00 | 49 | 49 | 100 | 30.01 | NNE | 0 | 0.00 |
| 8 | 11/15 | 17:00 | 51 | 50 | 98 | 30.01 | NNW | 1 | 0.00 |
| 9 | 11/15 | 16:00 | 53 | 51 | 95 | 30.00 | SSE | 2 | 0.00 |
| 10 | 11/15 | 15:00 | 54 | 51 | 91 | 29.98 | SSE | 2 | 0.00 |
| 11 | 11/15 | 14:00 | 54 | 52 | 93 | 29.99 | SE | 3 | 0.00 |
| 12 | 11/15 | 13:00 | 54 | 51 | 92 | 30.00 | SSE | 4 | 0.00 |
| 13 | 11/15 | 12:00 | 53 | 53 | 100 | 30.03 | SE | 3 | 0.00 |
| 14 | 11/15 | 11:00 | 51 | 49 | 93 | 30.04 | ESE | 6 | 0.00 |
| 15 | 11/15 | 10:00 | 49 | 38 | 67 | 30.04 | ESE | 2 | 0.00 |
| 16 | 11/15 | 09:00 | 48 | 37 | 66 | 30.05 | NNE | 2 | 0.00 |
| 17 | 11/15 | 08:00 | 48 | 37 | 67 | 30.04 | ESE | 2 | 0.00 |
| 18 | 11/15 | 07:00 | 47 | 37 | 70 | 30.03 | ENE | 2 | 0.00 |
| 19 | 11/15 | 06:00 | 47 | 38 | 72 | 30.01 | ESE | 4 | 0.00 |
| 20 | 11/15 | 05:00 | 47 | 39 | 74 | 30.01 | SE | 2 | 0.00 |
| 21 | 11/15 | 04:00 | 47 | 40 | 77 | 30.01 | ENE | 1 | 0.00 |
| 22 | 11/15 | 03:00 | 47 | 41 | 82 | 30.02 | ENE | 2 | 0.00 |
| 23 | 11/15 | 02:00 | 46 | 43 | 90 | 30.01 | SE | 4 | 0.00 |
| 24 | 11/15 | 01:00 | 44 | 44 | 100 | 30.01 | ESE | 2 | 0.00 |